Time;durP1;ratioP1;P1;durP2;ratioP2;P2;SDS_P1;SDS_P2;PMS_P1;PMS_P2;Temp;Humidity;BMP_temperature;BMP_pressure;BME280_temperature;BME280_humidity;BME280_pressure;Samples;Min_cycle;Max_cycle;Signal;HPM_P1;HPM_P2
2022/09/19 00:01:35;;;;;;;1.77;0.70;;;;;;;13.16;62.07;101590.38;5077300;28;20039;-47
2022/09/19 00:04:05;;;;;;;1.90;0.80;;;;;;;13.07;61.95;101572.59;5077491;28;20020;-47
2022/09/19 00:06:35;;;;;;;1.40;0.45;;;;;;;13.15;62.10;101586.03;5095342;28;20024;-49
2022/09/19 00:09:01;;;;;;;5.22;1.00;;;;;;;13.04;61.67;101562.16;5077325;28;20040;-50
2022/09/19 00:11:27;;;;;;;1.27;0.50;;;;;;;13.12;61.68;101575.59;5077235;28;20031;-46
2022/09/19 00:13:55;;;;;;;1.20;0.60;;;;;;;13.07;61.88;101570.72;5095010;28;20107;-46
2022/09/19 00:16:26;;;;;;;1.15;0.68;;;;;;;13.10;61.65;101588.41;5095165;28;20099;-46
2022/09/19 00:18:54;;;;;;;1.00;0.50;;;;;;;13.09;61.87;101586.72;5077653;28;20031;-47
2022/09/19 00:21:23;;;;;;;1.65;0.50;;;;;;;13.08;62.28;101582.38;5077385;28;20026;-49
2022/09/19 00:26:35;;;;;;;4.85;0.60;;;;;;;13.02;62.19;101586.63;5079952;28;20035;-47
2022/09/19 00:29:02;;;;;;;1.65;0.60;;;;;;;12.93;62.68;101583.16;5077912;28;20398;-47
2022/09/19 00:31:28;;;;;;;0.55;0.40;;;;;;;12.93;62.94;101588.56;5077219;28;20036;-46
2022/09/19 00:33:55;;;;;;;2.10;0.47;;;;;;;12.85;63.06;101577.00;5076883;28;20024;-47
2022/09/19 00:36:21;;;;;;;1.15;0.40;;;;;;;12.96;62.69;101588.19;5077175;28;20020;-48
2022/09/19 00:38:47;;;;;;;1.35;0.70;;;;;;;12.95;62.69;101591.91;5095027;28;20032;-48
2022/09/19 00:41:16;;;;;;;3.85;0.40;;;;;;;12.99;62.43;101587.00;5078487;28;20074;-47
2022/09/19 00:43:53;;;;;;;2.03;0.70;;;;;;;13.00;62.56;101587.81;5097303;28;20081;-48
2022/09/19 00:46:20;;;;;;;1.08;0.40;;;;;;;13.03;62.37;101590.16;5094759;28;20039;-48
2022/09/19 00:48:51;;;;;;;0.95;0.40;;;;;;;12.97;62.15;101584.47;5094355;28;20038;-48
2022/09/19 00:51:27;;;;;;;1.45;0.35;;;;;;;12.94;61.96;101589.38;5094763;28;20054;-48
2022/09/19 00:53:53;;;;;;;1.42;0.43;;;;;;;13.01;61.97;101603.00;5094468;28;20170;-46
2022/09/19 00:56:19;;;;;;;2.63;0.80;;;;;;;12.98;62.33;101601.47;5094085;28;20452;-46
2022/09/19 00:58:46;;;;;;;1.30;0.40;;;;;;;12.94;62.62;101601.00;5077691;28;20032;-48
2022/09/19 01:01:14;;;;;;;2.83;0.50;;;;;;;12.95;62.72;101601.88;5096743;28;20035;-48
2022/09/19 01:03:41;;;;;;;3.42;0.60;;;;;;;12.96;62.71;101608.91;5097477;28;20031;-47
2022/09/19 01:06:39;;;;;;;1.70;0.60;;;;;;;12.88;62.97;101595.50;5096816;28;20035;-47
2022/09/19 01:09:40;;;;;;;2.63;0.50;;;;;;;12.88;62.59;101593.66;5079463;28;20027;-49
2022/09/19 01:12:24;;;;;;;0.98;0.38;;;;;;;12.91;62.34;101601.38;5065559;28;20406;-46
2022/09/19 01:15:19;;;;;;;3.47;0.52;;;;;;;12.90;62.74;101605.09;5076150;28;20450;-49
2022/09/19 01:17:57;;;;;;;2.90;0.37;;;;;;;12.86;62.30;101601.09;5080671;28;20075;-49
2022/09/19 01:21:37;;;;;;;1.40;0.60;;;;;;;12.91;62.56;101608.66;5059635;28;20361;-47
2022/09/19 01:24:19;;;;;;;5.70;0.73;;;;;;;12.90;62.21;101609.66;5059174;28;20040;-47
2022/09/19 01:27:09;;;;;;;1.77;0.80;;;;;;;12.74;62.40;101591.72;5079803;28;20466;-47
2022/09/19 01:29:45;;;;;;;1.17;0.63;;;;;;;12.89;62.07;101619.59;5094091;28;20031;-47
2022/09/19 01:32:18;;;;;;;0.60;0.50;;;;;;;12.88;62.34;101620.59;5093942;28;20032;-46
2022/09/19 01:34:50;;;;;;;0.88;0.70;;;;;;;12.85;62.55;101621.00;5093628;28;20399;-50
2022/09/19 01:37:22;;;;;;;1.17;0.55;;;;;;;12.84;62.40;101613.91;5059487;28;20024;-48
2022/09/19 01:39:50;;;;;;;2.88;0.68;;;;;;;12.73;62.35;101590.06;5094101;28;20143;-48
2022/09/19 01:42:20;;;;;;;1.98;0.68;;;;;;;12.84;62.23;101616.59;5093645;28;20052;-47
2022/09/19 01:44:46;;;;;;;1.15;0.70;;;;;;;12.79;62.45;101614.44;5093779;28;20384;-47
2022/09/19 01:47:27;;;;;;;1.27;0.65;;;;;;;12.75;62.73;101609.59;5076038;28;20025;-47
2022/09/19 01:50:05;;;;;;;1.75;0.80;;;;;;;12.76;62.58;101614.81;5077858;28;20028;-49
2022/09/19 01:52:58;;;;;;;1.17;0.50;;;;;;;12.76;62.85;101617.50;5093865;28;20032;-47
2022/09/19 01:55:52;;;;;;;1.02;0.80;;;;;;;12.71;63.00;101611.81;5084458;28;20032;-48
2022/09/19 01:58:42;;;;;;;1.08;0.60;;;;;;;12.76;62.61;101616.69;5083156;28;20126;-46
2022/09/19 02:01:22;;;;;;;1.20;0.80;;;;;;;12.70;62.43;101602.06;5083597;28;20036;-47
2022/09/19 02:04:01;;;;;;;1.52;0.80;;;;;;;12.74;62.80;101608.75;5062946;28;20100;-47
2022/09/19 02:06:51;;;;;;;1.95;0.90;;;;;;;12.74;62.36;101608.75;5063888;28;20024;-47
2022/09/19 02:09:45;;;;;;;1.58;1.13;;;;;;;12.76;62.44;101609.41;5083230;28;20032;-46
2022/09/19 02:12:16;;;;;;;1.75;0.90;;;;;;;12.73;62.53;101609.78;5083396;28;20030;-46
2022/09/19 02:14:51;;;;;;;5.78;0.95;;;;;;;12.73;62.62;101608.94;5097360;28;20498;-46
2022/09/19 02:17:23;;;;;;;3.70;0.80;;;;;;;12.73;62.64;101608.94;5097001;28;20036;-46
2022/09/19 02:19:57;;;;;;;1.58;0.90;;;;;;;12.70;62.65;101606.59;5097621;28;20039;-47
2022/09/19 02:22:31;;;;;;;1.63;0.88;;;;;;;12.56;62.61;101589.34;5097590;28;20103;-48
2022/09/19 02:25:02;;;;;;;1.75;0.82;;;;;;;12.66;62.66;101602.59;5080430;28;20040;-47
2022/09/19 02:27:34;;;;;;;3.92;1.10;;;;;;;12.62;62.64;101607.50;5097242;28;20061;-47
2022/09/19 02:30:05;;;;;;;1.50;0.65;;;;;;;12.63;62.39;101606.50;5097039;28;20032;-47
2022/09/19 02:32:31;;;;;;;1.40;0.60;;;;;;;12.46;63.04;101575.25;5097003;28;20024;-46
2022/09/19 02:34:59;;;;;;;1.65;0.77;;;;;;;12.55;62.97;101593.06;5097193;28;20563;-46
2022/09/19 02:37:48;;;;;;;3.15;0.68;;;;;;;12.63;62.89;101605.63;5097264;28;20039;-45
2022/09/19 02:40:31;;;;;;;2.08;1.10;;;;;;;12.60;63.05;101606.84;5065610;28;20100;-47
2022/09/19 02:43:06;;;;;;;1.77;0.70;;;;;;;12.59;62.54;101600.63;5078580;28;20119;-44
2022/09/19 02:45:44;;;;;;;1.95;1.00;;;;;;;12.58;62.91;101607.00;5096988;28;20032;-47
2022/09/19 02:48:19;;;;;;;1.83;0.95;;;;;;;12.48;62.91;101595.63;5096867;28;20036;-46
2022/09/19 02:50:58;;;;;;;0.98;0.60;;;;;;;12.47;62.56;101593.13;5063152;28;20453;-48
2022/09/19 02:53:28;;;;;;;2.50;0.80;;;;;;;12.53;62.94;101595.91;5079651;28;20060;-47
2022/09/19 02:55:58;;;;;;;1.65;0.90;;;;;;;12.51;63.13;101597.97;5079126;28;20043;-49
2022/09/19 02:58:28;;;;;;;1.05;0.80;;;;;;;12.49;62.80;101596.47;5096872;28;20028;-46
2022/09/19 03:01:01;;;;;;;0.65;0.60;;;;;;;12.44;63.46;101601.53;5097031;28;20028;-48
2022/09/19 03:06:27;;;;;;;3.35;0.60;;;;;;;12.31;62.89;101576.03;5081547;28;20028;-47
2022/09/19 03:08:56;;;;;;;3.40;0.80;;;;;;;12.44;63.27;101599.69;5078230;28;20043;-47
2022/09/19 03:11:25;;;;;;;1.48;0.70;;;;;;;12.45;63.33;101595.97;5078481;28;20028;-48
2022/09/19 03:13:53;;;;;;;1.95;0.60;;;;;;;12.44;63.48;101599.69;5096667;28;20096;-46
2022/09/19 03:16:26;;;;;;;0.57;0.38;;;;;;;12.42;63.42;101596.31;5096342;28;20081;-46
2022/09/19 03:18:57;;;;;;;1.42;0.60;;;;;;;12.38;63.57;101595.00;5096767;28;20031;-46
2022/09/19 03:21:25;;;;;;;2.38;0.60;;;;;;;12.34;63.30;101589.13;5096480;28;20036;-47
2022/09/19 03:23:58;;;;;;;0.50;0.50;;;;;;;12.38;63.68;101595.00;5096340;28;20385;-47
2022/09/19 03:26:28;;;;;;;4.57;0.75;;;;;;;12.28;63.49;101583.66;5079265;28;20024;-45
2022/09/19 03:28:55;;;;;;;3.50;0.50;;;;;;;12.35;63.48;101589.97;5078447;28;20035;-46
2022/09/19 03:31:22;;;;;;;1.15;0.60;;;;;;;12.31;63.50;101594.03;5096050;28;20067;-45
2022/09/19 03:33:49;;;;;;;0.93;0.60;;;;;;;12.23;63.84;101580.63;5096368;28;20028;-48
2022/09/19 03:36:15;;;;;;;2.13;0.60;;;;;;;12.27;64.18;101596.25;5096297;28;20024;-46
2022/09/19 03:38:44;;;;;;;1.50;0.40;;;;;;;12.24;63.95;101602.00;5078121;28;20118;-46
2022/09/19 03:41:15;;;;;;;2.25;0.60;;;;;;;12.16;64.29;101599.34;5095720;28;20024;-46
2022/09/19 03:43:42;;;;;;;3.05;0.55;;;;;;;12.12;64.76;101600.72;5078052;28;20394;-49
2022/09/19 03:46:11;;;;;;;1.35;0.70;;;;;;;12.09;64.75;101607.31;5096278;28;20043;-51
2022/09/19 03:48:38;;;;;;;0.73;0.47;;;;;;;12.12;64.33;101614.19;5077611;28;20438;-49
2022/09/19 03:51:05;;;;;;;0.50;0.50;;;;;;;12.08;64.61;101610.16;5095749;28;20077;-47
2022/09/19 03:53:31;;;;;;;1.55;0.65;;;;;;;12.05;64.80;101605.94;5077289;28;20032;-48
2022/09/19 03:55:57;;;;;;;2.70;0.65;;;;;;;12.02;64.88;101614.41;5077846;28;20459;-49
2022/09/19 03:58:23;;;;;;;0.77;0.45;;;;;;;11.99;65.28;101609.34;5095738;28;20035;-48
2022/09/19 04:00:50;;;;;;;2.42;0.55;;;;;;;11.96;65.29;101613.25;5060482;28;20321;-49
2022/09/19 04:03:18;;;;;;;4.32;0.50;;;;;;;11.94;65.16;101617.09;5095310;28;20034;-47
2022/09/19 04:05:45;;;;;;;1.00;0.50;;;;;;;11.92;65.26;101621.81;5095485;28;20075;-47
2022/09/19 04:08:11;;;;;;;1.35;0.50;;;;;;;11.76;65.41;101593.09;5060748;28;20044;-50
2022/09/19 04:10:38;;;;;;;2.58;0.50;;;;;;;11.86;65.78;101612.56;5094980;28;20337;-45
2022/09/19 04:13:03;;;;;;;1.40;0.40;;;;;;;11.70;65.60;101585.69;5094920;28;20067;-47
2022/09/19 04:15:29;;;;;;;1.75;0.40;;;;;;;11.87;65.72;101616.09;5094454;28;20059;-50
2022/09/19 04:17:55;;;;;;;2.22;0.43;;;;;;;11.87;65.60;101619.63;5095656;28;20031;-45
2022/09/19 04:20:26;;;;;;;3.15;0.50;;;;;;;11.80;65.65;101608.72;5095376;28;20036;-45
2022/09/19 04:22:51;;;;;;;2.22;0.60;;;;;;;11.80;66.27;101605.19;5078056;28;20028;-46
2022/09/19 04:25:17;;;;;;;1.95;0.77;;;;;;;11.80;66.03;101608.72;5077184;28;20025;-45
2022/09/19 04:27:45;;;;;;;2.72;0.52;;;;;;;11.80;65.99;101614.09;5095254;28;20028;-45
2022/09/19 04:30:12;;;;;;;1.88;0.70;;;;;;;11.83;66.73;101612.94;5095082;28;20326;-47
2022/09/19 04:32:41;;;;;;;1.63;0.40;;;;;;;11.77;66.34;101614.44;5094725;28;20395;-45
2022/09/19 04:35:07;;;;;;;2.03;0.57;;;;;;;11.86;66.10;101630.56;5077563;28;20024;-47
2022/09/19 04:37:32;;;;;;;1.73;0.80;;;;;;;11.86;66.51;101627.88;5094670;28;20566;-46
2022/09/19 04:39:58;;;;;;;4.57;0.50;;;;;;;11.79;66.41;101614.25;5076517;28;20051;-47
2022/09/19 04:42:24;;;;;;;4.03;0.60;;;;;;;11.77;66.62;101618.97;5094350;28;20045;-51
2022/09/19 04:44:53;;;;;;;0.60;0.30;;;;;;;11.85;66.71;101626.19;5094516;28;20477;-47
2022/09/19 04:47:19;;;;;;;3.75;0.45;;;;;;;11.80;66.12;101614.09;5076732;28;20106;-50
2022/09/19 04:49:44;;;;;;;1.50;0.90;;;;;;;11.85;66.20;101628.88;5094408;28;20465;-47
2022/09/19 04:52:12;;;;;;;1.10;0.50;;;;;;;11.86;66.00;101627.88;5076445;28;20028;-46
2022/09/19 04:54:38;;;;;;;3.28;0.75;;;;;;;11.87;66.06;101625.03;5095200;28;20074;-47
2022/09/19 04:57:06;;;;;;;1.77;0.57;;;;;;;11.89;66.38;101627.53;5094401;28;20390;-46
2022/09/19 04:59:33;;;;;;;1.80;0.60;;;;;;;11.89;66.56;101632.94;5076328;28;20039;-48
2022/09/19 05:02:01;;;;;;;1.45;0.60;;;;;;;11.90;66.37;101634.63;5076349;28;20114;-46
2022/09/19 05:04:27;;;;;;;4.53;0.77;;;;;;;11.87;66.74;101634.94;5076416;28;20027;-48
2022/09/19 05:06:53;;;;;;;1.90;0.50;;;;;;;11.77;66.84;101614.44;5059298;28;20028;-46
2022/09/19 05:09:22;;;;;;;0.75;0.55;;;;;;;11.87;66.75;101634.94;5094520;28;20046;-48
2022/09/19 05:11:49;;;;;;;0.73;0.50;;;;;;;11.86;66.27;101627.88;5094466;28;20034;-48
2022/09/19 05:14:15;;;;;;;2.83;0.50;;;;;;;11.81;66.65;101626.56;5094372;28;20028;-50
2022/09/19 05:16:41;;;;;;;2.28;0.85;;;;;;;11.77;66.89;101625.19;5094272;28;20070;-47
2022/09/19 05:19:08;;;;;;;2.28;0.60;;;;;;;11.74;66.62;101619.34;5059179;28;20020;-46
2022/09/19 05:21:34;;;;;;;0.75;0.38;;;;;;;11.82;66.39;101632.78;5094347;28;20099;-48
2022/09/19 05:24:01;;;;;;;2.35;0.52;;;;;;;11.80;66.55;101635.63;5076230;28;20024;-47
2022/09/19 05:26:27;;;;;;;1.85;0.60;;;;;;;11.71;66.25;101609.75;5075998;28;20114;-46
2022/09/19 05:28:53;;;;;;;0.60;0.30;;;;;;;11.81;66.26;101633.78;5093762;28;20028;-48
2022/09/19 05:31:19;;;;;;;3.58;0.75;;;;;;;11.78;66.38;101617.97;5094010;28;20452;-46
2022/09/19 05:33:46;;;;;;;0.93;0.50;;;;;;;11.85;66.83;101629.75;5094266;28;20043;-46
2022/09/19 05:36:13;;;;;;;0.68;0.35;;;;;;;11.77;66.48;101618.97;5093849;28;20039;-46
2022/09/19 05:38:39;;;;;;;4.38;1.17;;;;;;;11.82;66.84;101636.28;5093796;28;20036;-46
2022/09/19 05:41:05;;;;;;;5.65;0.95;;;;;;;11.79;66.62;101635.78;5093180;28;20089;-46
2022/09/19 05:43:32;;;;;;;2.53;0.68;;;;;;;11.78;66.08;101632.28;5094319;28;20043;-48
2022/09/19 05:45:58;;;;;;;4.05;0.73;;;;;;;11.74;66.52;101633.63;5076203;28;20047;-46
2022/09/19 05:48:25;;;;;;;1.10;0.70;;;;;;;11.82;66.78;101643.53;5075628;28;20448;-51
2022/09/19 05:50:52;;;;;;;4.40;0.75;;;;;;;11.82;66.81;101638.16;5059081;28;20464;-48
2022/09/19 05:56:06;;;;;;;1.02;0.40;;;;;;;11.84;66.92;101646.88;5065126;28;20066;-46
2022/09/19 05:58:35;;;;;;;2.47;0.60;;;;;;;11.85;66.52;101650.41;5075826;28;20039;-46
2022/09/19 06:01:11;;;;;;;5.40;0.70;;;;;;;11.85;67.13;101653.97;5094036;28;20034;-45
2022/09/19 06:03:38;;;;;;;1.70;0.43;;;;;;;11.86;66.68;101660.19;5076021;28;20077;-47
2022/09/19 06:06:11;;;;;;;2.58;0.60;;;;;;;11.76;66.91;101647.75;5093680;28;20469;-46
2022/09/19 06:08:38;;;;;;;1.45;0.60;;;;;;;11.86;66.26;101657.50;5093955;28;20040;-45
2022/09/19 06:11:04;;;;;;;1.80;0.70;;;;;;;11.84;66.36;101654.13;5093566;28;20470;-47
2022/09/19 06:16:20;;;;;;;3.17;0.50;;;;;;;11.88;66.55;101666.22;5064902;28;20024;-49
2022/09/19 06:18:46;;;;;;;1.95;0.40;;;;;;;11.90;66.53;101672.31;5076352;28;20039;-45
2022/09/19 06:21:12;;;;;;;1.95;0.90;;;;;;;11.77;66.62;101652.09;5075368;28;20031;-47
2022/09/19 06:23:40;;;;;;;2.33;0.68;;;;;;;11.91;66.80;101672.13;5093389;28;20032;-49
2022/09/19 06:26:06;;;;;;;5.55;1.17;;;;;;;11.91;66.85;101676.69;5075701;28;20376;-46
2022/09/19 06:28:31;;;;;;;4.28;2.40;;;;;;;11.95;66.42;101676.16;5093806;28;20039;-45
2022/09/19 06:31:03;;;;;;;2.70;1.88;;;;;;;11.96;66.13;101683.25;5093825;28;20428;-46
2022/09/19 06:33:30;;;;;;;4.68;1.20;;;;;;;11.93;65.97;101678.19;5093717;28;20122;-45
2022/09/19 06:35:59;;;;;;;1.45;0.70;;;;;;;11.99;66.64;101685.56;5093544;28;20024;-47
2022/09/19 06:38:25;;;;;;;2.63;0.55;;;;;;;12.00;66.72;101691.81;5093507;28;20043;-50
2022/09/19 06:40:51;;;;;;;3.05;0.63;;;;;;;11.94;66.36;101681.72;5096718;28;20143;-46
2022/09/19 06:43:17;;;;;;;1.65;0.70;;;;;;;12.05;66.34;101692.09;5097011;28;20067;-46
2022/09/19 06:45:43;;;;;;;1.20;0.57;;;;;;;12.08;66.90;101683.69;5096990;28;20170;-48
2022/09/19 06:48:09;;;;;;;2.63;0.68;;;;;;;12.10;66.51;101697.00;5097076;28;20043;-45
2022/09/19 06:50:36;;;;;;;1.48;0.70;;;;;;;12.09;66.82;101692.59;5097158;28;20032;-50
2022/09/19 06:53:02;;;;;;;3.40;0.70;;;;;;;12.13;66.27;101693.97;5096767;28;20040;-47
2022/09/19 06:55:29;;;;;;;4.68;0.65;;;;;;;12.05;66.38;101680.50;5097083;28;20043;-45
2022/09/19 06:57:58;;;;;;;1.50;0.60;;;;;;;12.08;65.91;101688.25;5078509;28;20464;-47
2022/09/19 07:00:27;;;;;;;1.90;0.68;;;;;;;12.19;66.27;101702.16;5096909;28;20085;-45
2022/09/19 07:03:00;;;;;;;1.95;0.50;;;;;;;12.22;66.30;101695.63;5096443;28;20032;-45
2022/09/19 07:05:27;;;;;;;1.10;0.50;;;;;;;12.23;66.62;101696.44;5078956;28;20059;-45
2022/09/19 07:07:53;;;;;;;1.33;0.40;;;;;;;12.24;66.44;101698.09;5098867;28;20118;-45
2022/09/19 07:10:20;;;;;;;1.08;0.50;;;;;;;12.32;65.83;101703.47;5099533;28;20066;-45
2022/09/19 07:13:01;;;;;;;1.88;0.73;;;;;;;12.26;66.03;101696.94;5099746;28;20082;-47
2022/09/19 07:15:28;;;;;;;2.97;0.60;;;;;;;12.35;66.05;101709.38;5066326;28;20032;-46
2022/09/19 07:17:55;;;;;;;2.53;0.80;;;;;;;12.36;65.69;101711.03;5082037;28;20112;-45
2022/09/19 07:20:22;;;;;;;1.35;0.60;;;;;;;12.38;65.32;101711.69;5099228;28;20483;-46
2022/09/19 07:22:59;;;;;;;3.17;0.60;;;;;;;12.43;65.66;101713.88;5097071;28;20034;-46
2022/09/19 07:25:25;;;;;;;1.00;0.50;;;;;;;12.40;65.90;101692.66;5078986;28;20162;-48
2022/09/19 07:27:56;;;;;;;2.83;0.57;;;;;;;12.53;65.12;101706.41;5097779;28;20034;-47
2022/09/19 07:30:22;;;;;;;3.90;0.55;;;;;;;12.54;65.68;101704.56;5097257;28;20028;-47
2022/09/19 07:32:48;;;;;;;2.80;0.57;;;;;;;12.59;65.29;101705.72;5099927;28;20028;-45
2022/09/19 07:35:14;;;;;;;1.05;0.40;;;;;;;12.61;65.09;101712.75;5098943;28;20074;-46
2022/09/19 07:37:39;;;;;;;1.38;0.47;;;;;;;12.61;64.84;101701.97;5101202;28;20024;-45
2022/09/19 07:40:06;;;;;;;1.48;0.57;;;;;;;12.67;64.82;101706.69;5099243;28;20107;-46
2022/09/19 07:42:32;;;;;;;2.38;0.63;;;;;;;12.72;65.11;101704.28;5096500;28;20105;-46
2022/09/19 07:44:57;;;;;;;1.25;0.55;;;;;;;12.76;64.22;101711.03;5096690;28;20040;-45
2022/09/19 07:47:26;;;;;;;5.63;0.88;;;;;;;12.72;63.85;101696.19;5078753;28;20075;-45
2022/09/19 07:49:54;;;;;;;3.92;0.70;;;;;;;12.82;64.03;101715.69;5061403;28;20111;-46
2022/09/19 07:52:22;;;;;;;2.78;0.60;;;;;;;12.77;63.81;101697.34;5096539;28;20544;-46
2022/09/19 07:54:48;;;;;;;1.90;0.50;;;;;;;12.83;64.16;101709.25;5096470;28;20055;-46
2022/09/19 07:57:14;;;;;;;2.20;0.63;;;;;;;12.94;63.99;101719.63;5096225;28;20024;-46
2022/09/19 07:59:39;;;;;;;2.25;0.57;;;;;;;13.01;63.04;101719.78;5077596;28;20548;-46
2022/09/19 08:02:08;;;;;;;2.92;0.88;;;;;;;13.06;63.20;101713.88;5095469;28;20028;-46
2022/09/19 08:04:34;;;;;;;6.57;1.00;;;;;;;13.05;62.95;101704.91;5077378;28;20054;-46
2022/09/19 08:07:00;;;;;;;4.28;1.08;;;;;;;13.09;62.46;101713.50;5095500;28;20027;-45
2022/09/19 08:09:26;;;;;;;1.98;0.55;;;;;;;13.25;62.19;101732.25;5095289;28;20039;-46
2022/09/19 08:11:52;;;;;;;2.55;0.70;;;;;;;13.29;62.08;101738.97;5095224;28;20032;-46
2022/09/19 08:14:17;;;;;;;2.83;0.70;;;;;;;13.33;61.94;101734.94;5078198;28;20020;-46
2022/09/19 08:16:44;;;;;;;3.95;0.65;;;;;;;13.43;61.68;101731.13;5078085;28;20028;-47
2022/09/19 08:19:10;;;;;;;5.28;0.70;;;;;;;13.51;61.06;101747.25;5096362;28;20024;-46
2022/09/19 08:21:36;;;;;;;7.25;0.70;;;;;;;13.52;60.93;101740.84;5078151;28;20032;-46
2022/09/19 08:24:02;;;;;;;5.03;1.20;;;;;;;13.61;61.21;101736.22;5078252;28;20028;-47
2022/09/19 08:26:28;;;;;;;5.85;0.80;;;;;;;13.80;60.94;101754.63;5097391;28;20043;-47
2022/09/19 08:28:54;;;;;;;5.18;0.75;;;;;;;13.89;60.28;101741.84;5097594;28;20039;-46
2022/09/19 08:31:20;;;;;;;3.80;0.55;;;;;;;14.02;60.29;101754.72;5095873;28;20032;-49
2022/09/19 08:33:48;;;;;;;2.53;1.30;;;;;;;14.06;59.64;101753.31;5060547;28;20440;-48
2022/09/19 08:36:14;;;;;;;7.32;1.70;;;;;;;14.19;59.17;101758.94;5077459;28;20387;-46
2022/09/19 08:38:40;;;;;;;10.63;1.80;;;;;;;14.21;59.22;101759.59;5077018;28;20036;-46
2022/09/19 08:41:29;;;;;;;6.25;1.38;;;;;;;14.22;59.12;101768.53;5077501;28;20039;-46
2022/09/19 08:44:05;;;;;;;6.38;1.30;;;;;;;14.28;59.23;101767.78;5095740;28;20103;-45
2022/09/19 08:46:59;;;;;;;2.17;0.85;;;;;;;14.30;59.45;101771.13;5095417;28;20483;-46
2022/09/19 08:49:33;;;;;;;5.00;0.80;;;;;;;14.46;59.23;101772.81;5081857;28;20471;-46
2022/09/19 08:52:05;;;;;;;3.50;0.82;;;;;;;14.58;58.46;101765.94;5095528;28;20529;-47
2022/09/19 08:54:35;;;;;;;3.88;0.60;;;;;;;14.66;57.70;101767.72;5077028;28;20036;-47
2022/09/19 08:57:01;;;;;;;1.92;0.57;;;;;;;14.74;57.52;101769.47;5094870;28;20027;-45
2022/09/19 08:59:33;;;;;;;1.80;0.60;;;;;;;14.76;57.10;101779.06;5095157;28;20027;-45
2022/09/19 09:02:09;;;;;;;1.67;0.60;;;;;;;14.75;57.38;101769.28;5059682;28;20024;-45
2022/09/19 09:04:35;;;;;;;3.83;0.77;;;;;;;14.80;57.08;101774.97;5095215;28;20372;-45
2022/09/19 09:07:35;;;;;;;3.60;0.45;;;;;;;14.80;57.07;101769.56;5076392;28;20560;-46
2022/09/19 09:10:15;;;;;;;9.68;1.23;;;;;;;14.87;56.75;101753.41;5080773;28;20060;-46
2022/09/19 09:13:20;;;;;;;4.53;0.75;;;;;;;15.09;56.02;101773.22;5095777;28;20085;-49
2022/09/19 09:16:06;;;;;;;1.05;0.40;;;;;;;15.36;55.11;101770.75;5083360;28;20471;-46
2022/09/19 09:18:56;;;;;;;2.55;0.50;;;;;;;15.63;54.72;101761.03;5095079;28;20028;-46
2022/09/19 09:21:49;;;;;;;5.35;0.77;;;;;;;15.92;54.05;101773.59;5094413;28;20471;-46
2022/09/19 09:24:24;;;;;;;2.85;0.70;;;;;;;15.90;52.61;101774.81;5079929;28;20078;-48
2022/09/19 09:26:54;;;;;;;2.53;0.60;;;;;;;15.93;53.65;101769.84;5094873;28;20138;-46
2022/09/19 09:29:28;;;;;;;5.53;0.80;;;;;;;16.00;52.97;101765.31;5043557;28;20078;-48
2022/09/19 09:32:01;;;;;;;9.50;0.73;;;;;;;16.12;52.23;101787.28;5094498;28;20507;-46
2022/09/19 09:34:33;;;;;;;4.20;0.45;;;;;;;16.03;53.13;101785.78;5095039;28;20035;-46
2022/09/19 09:37:06;;;;;;;4.45;0.90;;;;;;;15.94;53.91;101785.06;5077013;28;20066;-46
2022/09/19 09:39:50;;;;;;;5.78;0.88;;;;;;;15.77;52.43;101781.81;5094298;28;20391;-48
2022/09/19 09:42:24;;;;;;;1.33;0.30;;;;;;;15.73;52.91;101787.78;5094094;28;20040;-46
2022/09/19 09:45:14;;;;;;;2.47;0.90;;;;;;;15.62;52.67;101779.16;5095037;28;20075;-47
2022/09/19 09:47:51;;;;;;;1.80;0.55;;;;;;;15.54;52.39;101784.69;5080661;28;20059;-47
2022/09/19 09:50:35;;;;;;;2.28;0.60;;;;;;;15.48;53.00;101775.47;5095326;28;20487;-46
2022/09/19 09:53:15;;;;;;;2.03;0.55;;;;;;;15.48;53.02;101769.22;5096475;28;20036;-46
2022/09/19 09:59:10;;;;;;;3.17;0.73;;;;;;;15.61;52.26;101772.03;5083525;28;20024;-46
2022/09/19 10:04:51;;;;;;;1.48;0.52;;;;;;;15.67;52.95;101765.00;5079775;28;20039;-46
2022/09/19 10:07:30;;;;;;;8.77;0.82;;;;;;;15.78;51.98;101766.38;5094180;28;20028;-49
2022/09/19 10:10:02;;;;;;;1.90;0.57;;;;;;;15.90;52.10;101763.97;5093852;28;20116;-48
2022/09/19 10:12:40;;;;;;;0.47;0.43;;;;;;;16.20;51.80;101767.31;5076231;28;20031;-47
2022/09/19 10:15:15;;;;;;;0.50;0.50;;;;;;;16.44;51.94;101774.13;5096754;28;20032;-47
2022/09/19 10:17:48;;;;;;;2.55;0.80;;;;;;;16.52;50.08;101768.53;5063557;28;20044;-48
2022/09/19 10:20:22;;;;;;;3.03;0.80;;;;;;;16.60;51.41;101773.81;5098223;28;20059;-47
2022/09/19 10:22:49;;;;;;;3.40;0.60;;;;;;;16.72;50.97;101765.91;5062709;28;20028;-51
2022/09/19 10:25:16;;;;;;;4.30;0.47;;;;;;;16.89;50.49;101758.28;5097473;28;20039;-48
2022/09/19 10:27:45;;;;;;;1.75;0.60;;;;;;;17.29;50.28;101781.97;5097413;28;20039;-48
2022/09/19 10:30:16;;;;;;;4.82;0.55;;;;;;;17.32;49.39;101785.13;5097512;28;20032;-47
2022/09/19 10:32:43;;;;;;;1.55;0.80;;;;;;;17.32;49.14;101774.25;5096791;28;20081;-46
2022/09/19 10:35:36;;;;;;;1.20;0.50;;;;;;;17.28;47.45;101772.19;5079209;28;20036;-47
2022/09/19 10:38:13;;;;;;;3.58;0.50;;;;;;;17.22;48.73;101777.38;5097869;28;20036;-47
2022/09/19 10:40:58;;;;;;;2.10;0.50;;;;;;;17.13;48.16;101777.78;5097017;28;20540;-45
2022/09/19 10:43:31;;;;;;;1.15;0.50;;;;;;;17.01;47.68;101766.66;5097379;28;20040;-46
2022/09/19 10:46:06;;;;;;;2.65;0.75;;;;;;;17.15;47.76;101779.25;5078855;28;20417;-46
2022/09/19 10:48:35;;;;;;;2.22;0.60;;;;;;;17.24;47.45;101776.34;5079163;28;20459;-48
2022/09/19 10:51:11;;;;;;;1.17;0.50;;;;;;;17.40;47.81;101776.78;5096947;28;20039;-49
2022/09/19 10:53:39;;;;;;;4.20;0.50;;;;;;;17.53;47.17;101773.25;5097444;28;20032;-48
2022/09/19 10:56:11;;;;;;;4.28;0.65;;;;;;;17.74;46.75;101763.22;5097104;28;20028;-47
2022/09/19 10:58:42;;;;;;;1.13;0.57;;;;;;;18.11;46.94;101771.81;5078483;28;20333;-48
2022/09/19 11:01:25;;;;;;;3.20;0.60;;;;;;;18.16;43.65;101763.81;5096804;28;20039;-46
2022/09/19 11:04:04;;;;;;;5.18;0.63;;;;;;;18.19;44.53;101771.56;5096825;28;20024;-48
2022/09/19 11:06:32;;;;;;;2.03;0.65;;;;;;;18.52;45.56;101776.09;5096769;28;20028;-48
2022/09/19 11:08:59;;;;;;;1.13;0.30;;;;;;;18.96;44.71;101779.91;5096585;28;20099;-46
2022/09/19 11:11:46;;;;;;;4.10;0.60;;;;;;;19.23;41.31;101771.59;5096750;28;20074;-46
2022/09/19 11:14:35;;;;;;;1.10;0.50;;;;;;;19.67;40.35;101773.38;5096293;28;20040;-49
2022/09/19 11:17:37;;;;;;;2.00;0.40;;;;;;;20.35;39.87;101770.88;5082182;28;20024;-49
2022/09/19 11:20:31;;;;;;;4.85;0.32;;;;;;;20.70;40.25;101765.66;5081182;28;20111;-46
2022/09/19 11:23:28;;;;;;;1.02;0.43;;;;;;;21.08;38.23;101767.25;5096206;28;20035;-45
2022/09/19 11:26:18;;;;;;;1.55;0.30;;;;;;;20.95;36.89;101768.28;5082588;28;20036;-48
2022/09/19 11:29:09;;;;;;;3.78;0.40;;;;;;;20.99;38.40;101764.00;5096255;28;20038;-47
2022/09/19 11:32:03;;;;;;;1.17;0.50;;;;;;;20.93;39.18;101764.09;5078066;28;20047;-46
2022/09/19 11:34:56;;;;;;;0.88;0.38;;;;;;;21.85;35.28;101761.00;5081088;28;20042;-48
2022/09/19 11:37:53;;;;;;;3.85;0.50;;;;;;;22.48;35.79;101750.41;5064840;28;20032;-48
2022/09/19 11:40:58;;;;;;;1.65;0.40;;;;;;;22.13;35.80;101745.78;5082362;28;20043;-47
2022/09/19 11:43:53;;;;;;;0.90;0.40;;;;;;;22.02;37.38;101759.22;5080822;28;20366;-48
2022/09/19 11:46:54;;;;;;;0.77;0.35;;;;;;;21.92;35.75;101761.72;5081940;28;20488;-50
2022/09/19 11:49:51;;;;;;;0.90;0.30;;;;;;;21.76;35.25;101771.47;5083096;28;20039;-49
2022/09/19 11:52:57;;;;;;;0.70;0.40;;;;;;;21.69;35.85;101748.88;5095550;28;20032;-47
2022/09/19 11:55:43;;;;;;;0.70;0.25;;;;;;;21.97;36.35;101739.97;5052483;28;20035;-46
2022/09/19 11:58:23;;;;;;;2.15;0.43;;;;;;;22.09;34.69;101748.16;5078781;28;20057;-46
2022/09/19 12:01:15;;;;;;;1.55;0.70;;;;;;;22.78;35.55;101741.97;5095625;28;20427;-46
2022/09/19 12:04:21;;;;;;;0.90;0.40;;;;;;;22.67;35.09;101737.34;5077371;28;20360;-47
2022/09/19 12:07:13;;;;;;;1.02;0.55;;;;;;;22.82;33.46;101718.47;5068841;28;20028;-49
2022/09/19 12:09:48;;;;;;;0.63;0.30;;;;;;;23.27;35.43;101720.44;5063302;28;20024;-47